sensor_id;sensor_type;location;lat;lon;timestamp;P1;durP1;ratioP1;P2;durP2;ratioP2
71730;SDS011;65964;43.496;3.710;2023-10-13T00:01:00;18.33;;;13.77;;
71730;SDS011;65964;43.496;3.710;2023-10-13T00:03:29;18.63;;;14.57;;
71730;SDS011;65964;43.496;3.710;2023-10-13T00:05:59;18.98;;;13.82;;
71730;SDS011;65964;43.496;3.710;2023-10-13T00:08:28;18.13;;;14.93;;
71730;SDS011;65964;43.496;3.710;2023-10-13T00:10:54;18.35;;;15.15;;
71730;SDS011;65964;43.496;3.710;2023-10-13T00:13:25;20.20;;;15.48;;
71730;SDS011;65964;43.496;3.710;2023-10-13T00:15:51;20.88;;;15.80;;
71730;SDS011;65964;43.496;3.710;2023-10-13T00:18:27;18.25;;;14.95;;
71730;SDS011;65964;43.496;3.710;2023-10-13T00:20:58;19.87;;;15.87;;
71730;SDS011;65964;43.496;3.710;2023-10-13T00:23:24;19.88;;;15.82;;
71730;SDS011;65964;43.496;3.710;2023-10-13T00:25:53;16.88;;;14.40;;
71730;SDS011;65964;43.496;3.710;2023-10-13T00:28:24;20.88;;;15.15;;
71730;SDS011;65964;43.496;3.710;2023-10-13T00:30:51;18.98;;;15.88;;
71730;SDS011;65964;43.496;3.710;2023-10-13T00:33:18;19.88;;;14.80;;
71730;SDS011;65964;43.496;3.710;2023-10-13T00:35:49;19.00;;;14.65;;
71730;SDS011;65964;43.496;3.710;2023-10-13T00:38:18;18.90;;;13.93;;
71730;SDS011;65964;43.496;3.710;2023-10-13T00:40:45;17.70;;;14.80;;
71730;SDS011;65964;43.496;3.710;2023-10-13T00:43:19;18.92;;;15.15;;
71730;SDS011;65964;43.496;3.710;2023-10-13T00:45:46;20.60;;;14.85;;
71730;SDS011;65964;43.496;3.710;2023-10-13T00:48:25;18.83;;;14.63;;
71730;SDS011;65964;43.496;3.710;2023-10-13T00:51:02;15.25;;;13.57;;
71730;SDS011;65964;43.496;3.710;2023-10-13T00:53:31;19.10;;;14.10;;
71730;SDS011;65964;43.496;3.710;2023-10-13T00:56:05;17.75;;;14.45;;
71730;SDS011;65964;43.496;3.710;2023-10-13T00:58:52;17.77;;;14.07;;
71730;SDS011;65964;43.496;3.710;2023-10-13T01:01:18;18.58;;;13.75;;
71730;SDS011;65964;43.496;3.710;2023-10-13T01:03:51;17.17;;;13.90;;
71730;SDS011;65964;43.496;3.710;2023-10-13T01:06:20;17.00;;;13.23;;
71730;SDS011;65964;43.496;3.710;2023-10-13T01:08:55;19.17;;;13.55;;
71730;SDS011;65964;43.496;3.710;2023-10-13T01:11:22;18.05;;;14.20;;
71730;SDS011;65964;43.496;3.710;2023-10-13T01:13:49;16.90;;;13.40;;
71730;SDS011;65964;43.496;3.710;2023-10-13T01:16:21;19.15;;;13.15;;
71730;SDS011;65964;43.496;3.710;2023-10-13T01:18:49;14.77;;;12.57;;
71730;SDS011;65964;43.496;3.710;2023-10-13T01:21:18;17.70;;;13.00;;
71730;SDS011;65964;43.496;3.710;2023-10-13T01:23:53;18.67;;;13.70;;
71730;SDS011;65964;43.496;3.710;2023-10-13T01:26:19;19.38;;;13.95;;
71730;SDS011;65964;43.496;3.710;2023-10-13T01:29:07;15.57;;;13.82;;
71730;SDS011;65964;43.496;3.710;2023-10-13T01:31:40;16.05;;;14.30;;
71730;SDS011;65964;43.496;3.710;2023-10-13T01:34:16;18.73;;;13.57;;
71730;SDS011;65964;43.496;3.710;2023-10-13T01:39:16;15.77;;;13.13;;
71730;SDS011;65964;43.496;3.710;2023-10-13T01:41:42;16.40;;;13.27;;
71730;SDS011;65964;43.496;3.710;2023-10-13T01:44:09;16.35;;;12.48;;
71730;SDS011;65964;43.496;3.710;2023-10-13T01:46:39;16.00;;;13.38;;
71730;SDS011;65964;43.496;3.710;2023-10-13T01:49:07;16.15;;;12.85;;
71730;SDS011;65964;43.496;3.710;2023-10-13T01:51:33;17.85;;;13.60;;
71730;SDS011;65964;43.496;3.710;2023-10-13T01:54:00;18.25;;;13.25;;
71730;SDS011;65964;43.496;3.710;2023-10-13T01:56:28;17.30;;;12.48;;
71730;SDS011;65964;43.496;3.710;2023-10-13T01:58:57;18.00;;;13.07;;
71730;SDS011;65964;43.496;3.710;2023-10-13T02:01:23;14.15;;;12.60;;
71730;SDS011;65964;43.496;3.710;2023-10-13T02:03:53;15.45;;;12.88;;
71730;SDS011;65964;43.496;3.710;2023-10-13T02:06:27;17.23;;;12.45;;
71730;SDS011;65964;43.496;3.710;2023-10-13T02:09:01;17.25;;;13.18;;
71730;SDS011;65964;43.496;3.710;2023-10-13T02:11:47;17.33;;;13.55;;
71730;SDS011;65964;43.496;3.710;2023-10-13T02:14:19;14.98;;;13.05;;
71730;SDS011;65964;43.496;3.710;2023-10-13T02:16:47;14.85;;;12.57;;
71730;SDS011;65964;43.496;3.710;2023-10-13T02:19:15;17.08;;;12.85;;
71730;SDS011;65964;43.496;3.710;2023-10-13T02:21:44;17.42;;;12.50;;
71730;SDS011;65964;43.496;3.710;2023-10-13T02:24:11;16.27;;;12.70;;
71730;SDS011;65964;43.496;3.710;2023-10-13T02:26:43;18.60;;;13.18;;
71730;SDS011;65964;43.496;3.710;2023-10-13T02:29:09;16.45;;;13.48;;
71730;SDS011;65964;43.496;3.710;2023-10-13T02:31:40;18.80;;;12.88;;
71730;SDS011;65964;43.496;3.710;2023-10-13T02:34:06;16.42;;;13.02;;
71730;SDS011;65964;43.496;3.710;2023-10-13T02:36:33;16.65;;;12.73;;
71730;SDS011;65964;43.496;3.710;2023-10-13T02:39:09;17.13;;;13.52;;
71730;SDS011;65964;43.496;3.710;2023-10-13T02:41:35;15.18;;;12.88;;
71730;SDS011;65964;43.496;3.710;2023-10-13T02:44:04;18.23;;;13.25;;
71730;SDS011;65964;43.496;3.710;2023-10-13T02:46:31;16.90;;;12.63;;
71730;SDS011;65964;43.496;3.710;2023-10-13T02:49:00;17.75;;;13.10;;
71730;SDS011;65964;43.496;3.710;2023-10-13T02:51:34;16.80;;;13.43;;
71730;SDS011;65964;43.496;3.710;2023-10-13T02:54:07;16.05;;;13.32;;
71730;SDS011;65964;43.496;3.710;2023-10-13T02:56:39;18.23;;;13.80;;
71730;SDS011;65964;43.496;3.710;2023-10-13T02:59:22;19.02;;;13.98;;
71730;SDS011;65964;43.496;3.710;2023-10-13T03:01:59;17.00;;;13.23;;
71730;SDS011;65964;43.496;3.710;2023-10-13T03:04:25;18.05;;;14.05;;
71730;SDS011;65964;43.496;3.710;2023-10-13T03:06:52;17.38;;;13.70;;
71730;SDS011;65964;43.496;3.710;2023-10-13T03:09:18;16.92;;;13.73;;
71730;SDS011;65964;43.496;3.710;2023-10-13T03:11:50;17.27;;;13.77;;
71730;SDS011;65964;43.496;3.710;2023-10-13T03:14:16;17.83;;;14.23;;
71730;SDS011;65964;43.496;3.710;2023-10-13T03:17:09;16.42;;;13.45;;
71730;SDS011;65964;43.496;3.710;2023-10-13T03:19:41;17.67;;;14.18;;
71730;SDS011;65964;43.496;3.710;2023-10-13T03:22:11;18.05;;;13.52;;
71730;SDS011;65964;43.496;3.710;2023-10-13T03:24:40;20.63;;;15.35;;
71730;SDS011;65964;43.496;3.710;2023-10-13T03:27:21;20.48;;;14.50;;
71730;SDS011;65964;43.496;3.710;2023-10-13T03:29:49;18.15;;;14.60;;
71730;SDS011;65964;43.496;3.710;2023-10-13T03:32:19;22.33;;;15.73;;
71730;SDS011;65964;43.496;3.710;2023-10-13T03:34:46;18.67;;;15.23;;
71730;SDS011;65964;43.496;3.710;2023-10-13T03:37:35;19.70;;;15.43;;
71730;SDS011;65964;43.496;3.710;2023-10-13T03:42:54;19.95;;;16.05;;
71730;SDS011;65964;43.496;3.710;2023-10-13T03:45:30;20.17;;;15.77;;
71730;SDS011;65964;43.496;3.710;2023-10-13T03:48:03;19.65;;;16.13;;
71730;SDS011;65964;43.496;3.710;2023-10-13T03:50:34;20.25;;;15.65;;
71730;SDS011;65964;43.496;3.710;2023-10-13T03:53:01;18.17;;;16.02;;
71730;SDS011;65964;43.496;3.710;2023-10-13T03:55:27;20.77;;;15.77;;
71730;SDS011;65964;43.496;3.710;2023-10-13T03:57:54;19.63;;;15.13;;
71730;SDS011;65964;43.496;3.710;2023-10-13T04:00:23;19.42;;;16.10;;
71730;SDS011;65964;43.496;3.710;2023-10-13T04:02:50;21.00;;;16.80;;
71730;SDS011;65964;43.496;3.710;2023-10-13T04:05:30;20.63;;;17.45;;
71730;SDS011;65964;43.496;3.710;2023-10-13T04:08:09;22.17;;;16.75;;
71730;SDS011;65964;43.496;3.710;2023-10-13T04:10:53;23.65;;;16.35;;
71730;SDS011;65964;43.496;3.710;2023-10-13T04:13:20;19.75;;;15.57;;
71730;SDS011;65964;43.496;3.710;2023-10-13T04:16:06;23.52;;;16.27;;
71730;SDS011;65964;43.496;3.710;2023-10-13T04:18:50;21.40;;;16.40;;
71730;SDS011;65964;43.496;3.710;2023-10-13T04:21:19;24.83;;;18.65;;
71730;SDS011;65964;43.496;3.710;2023-10-13T04:24:06;19.83;;;16.15;;
71730;SDS011;65964;43.496;3.710;2023-10-13T04:26:42;22.40;;;15.98;;
71730;SDS011;65964;43.496;3.710;2023-10-13T04:29:28;21.48;;;17.33;;
71730;SDS011;65964;43.496;3.710;2023-10-13T04:32:14;22.95;;;17.67;;
71730;SDS011;65964;43.496;3.710;2023-10-13T04:34:53;22.45;;;16.85;;
71730;SDS011;65964;43.496;3.710;2023-10-13T04:37:23;21.95;;;17.52;;
71730;SDS011;65964;43.496;3.710;2023-10-13T04:39:57;21.25;;;17.90;;
71730;SDS011;65964;43.496;3.710;2023-10-13T04:42:36;22.55;;;16.52;;
71730;SDS011;65964;43.496;3.710;2023-10-13T04:45:18;23.15;;;17.67;;
71730;SDS011;65964;43.496;3.710;2023-10-13T04:47:56;21.35;;;16.55;;
71730;SDS011;65964;43.496;3.710;2023-10-13T04:50:40;25.48;;;19.50;;
71730;SDS011;65964;43.496;3.710;2023-10-13T04:53:16;22.73;;;17.13;;
71730;SDS011;65964;43.496;3.710;2023-10-13T04:55:55;22.70;;;16.60;;
71730;SDS011;65964;43.496;3.710;2023-10-13T04:58:44;21.95;;;17.88;;
71730;SDS011;65964;43.496;3.710;2023-10-13T05:01:29;23.33;;;17.52;;
71730;SDS011;65964;43.496;3.710;2023-10-13T05:04:01;26.77;;;16.67;;
71730;SDS011;65964;43.496;3.710;2023-10-13T05:06:47;19.92;;;16.48;;
71730;SDS011;65964;43.496;3.710;2023-10-13T05:09:31;25.33;;;18.37;;
71730;SDS011;65964;43.496;3.710;2023-10-13T05:12:16;24.60;;;18.45;;
71730;SDS011;65964;43.496;3.710;2023-10-13T05:15:01;25.33;;;19.88;;
71730;SDS011;65964;43.496;3.710;2023-10-13T05:17:45;29.53;;;20.13;;
71730;SDS011;65964;43.496;3.710;2023-10-13T05:20:30;24.63;;;19.02;;
71730;SDS011;65964;43.496;3.710;2023-10-13T05:23:14;26.30;;;18.65;;
71730;SDS011;65964;43.496;3.710;2023-10-13T05:26:01;25.10;;;18.40;;
71730;SDS011;65964;43.496;3.710;2023-10-13T05:28:46;25.88;;;17.60;;
71730;SDS011;65964;43.496;3.710;2023-10-13T05:31:30;26.63;;;19.17;;
71730;SDS011;65964;43.496;3.710;2023-10-13T05:34:15;32.30;;;22.73;;
71730;SDS011;65964;43.496;3.710;2023-10-13T05:36:59;31.33;;;22.80;;
71730;SDS011;65964;43.496;3.710;2023-10-13T05:39:44;36.08;;;27.77;;
71730;SDS011;65964;43.496;3.710;2023-10-13T05:42:29;28.97;;;22.33;;
71730;SDS011;65964;43.496;3.710;2023-10-13T05:45:13;31.10;;;22.95;;
71730;SDS011;65964;43.496;3.710;2023-10-13T05:47:42;33.35;;;24.20;;
71730;SDS011;65964;43.496;3.710;2023-10-13T05:50:08;33.80;;;23.33;;
71730;SDS011;65964;43.496;3.710;2023-10-13T05:52:45;32.30;;;22.42;;
71730;SDS011;65964;43.496;3.710;2023-10-13T05:55:21;30.88;;;22.92;;
71730;SDS011;65964;43.496;3.710;2023-10-13T05:58:06;35.05;;;22.10;;
71730;SDS011;65964;43.496;3.710;2023-10-13T06:00:51;31.20;;;22.75;;
71730;SDS011;65964;43.496;3.710;2023-10-13T06:03:36;35.33;;;23.07;;
71730;SDS011;65964;43.496;3.710;2023-10-13T06:06:20;33.78;;;22.25;;
71730;SDS011;65964;43.496;3.710;2023-10-13T06:09:05;33.80;;;23.08;;
71730;SDS011;65964;43.496;3.710;2023-10-13T06:11:49;39.90;;;24.42;;
71730;SDS011;65964;43.496;3.710;2023-10-13T06:14:34;34.33;;;24.03;;
71730;SDS011;65964;43.496;3.710;2023-10-13T06:17:19;34.17;;;24.58;;
71730;SDS011;65964;43.496;3.710;2023-10-13T06:20:04;35.27;;;24.33;;
71730;SDS011;65964;43.496;3.710;2023-10-13T06:22:48;33.25;;;23.65;;
71730;SDS011;65964;43.496;3.710;2023-10-13T06:25:33;32.33;;;23.00;;
71730;SDS011;65964;43.496;3.710;2023-10-13T06:28:18;33.23;;;24.73;;
71730;SDS011;65964;43.496;3.710;2023-10-13T06:31:04;34.00;;;23.70;;
71730;SDS011;65964;43.496;3.710;2023-10-13T06:33:33;35.42;;;24.65;;
71730;SDS011;65964;43.496;3.710;2023-10-13T06:36:03;37.45;;;23.60;;
71730;SDS011;65964;43.496;3.710;2023-10-13T06:38:34;31.25;;;21.88;;
71730;SDS011;65964;43.496;3.710;2023-10-13T06:41:03;32.00;;;20.95;;
71730;SDS011;65964;43.496;3.710;2023-10-13T06:43:33;31.08;;;21.85;;
71730;SDS011;65964;43.496;3.710;2023-10-13T06:46:08;28.25;;;20.15;;
71730;SDS011;65964;43.496;3.710;2023-10-13T06:48:40;31.10;;;20.52;;
71730;SDS011;65964;43.496;3.710;2023-10-13T06:51:06;30.58;;;21.33;;
71730;SDS011;65964;43.496;3.710;2023-10-13T06:53:50;30.60;;;20.02;;
71730;SDS011;65964;43.496;3.710;2023-10-13T06:56:21;29.10;;;20.20;;
71730;SDS011;65964;43.496;3.710;2023-10-13T06:58:50;29.30;;;19.48;;
71730;SDS011;65964;43.496;3.710;2023-10-13T07:01:16;28.27;;;19.80;;
71730;SDS011;65964;43.496;3.710;2023-10-13T07:03:47;33.10;;;21.23;;
71730;SDS011;65964;43.496;3.710;2023-10-13T07:06:20;29.73;;;21.02;;
71730;SDS011;65964;43.496;3.710;2023-10-13T07:08:46;30.50;;;20.83;;
71730;SDS011;65964;43.496;3.710;2023-10-13T07:11:25;31.42;;;20.85;;
71730;SDS011;65964;43.496;3.710;2023-10-13T07:14:04;28.85;;;20.00;;
71730;SDS011;65964;43.496;3.710;2023-10-13T07:16:59;30.80;;;19.40;;
71730;SDS011;65964;43.496;3.710;2023-10-13T07:19:25;28.17;;;20.80;;
71730;SDS011;65964;43.496;3.710;2023-10-13T07:21:55;28.50;;;19.65;;
71730;SDS011;65964;43.496;3.710;2023-10-13T07:24:25;29.48;;;21.27;;
71730;SDS011;65964;43.496;3.710;2023-10-13T07:27:04;29.25;;;19.92;;
71730;SDS011;65964;43.496;3.710;2023-10-13T07:29:31;30.77;;;19.38;;
71730;SDS011;65964;43.496;3.710;2023-10-13T07:32:00;32.13;;;19.17;;
71730;SDS011;65964;43.496;3.710;2023-10-13T07:34:37;29.08;;;18.73;;
71730;SDS011;65964;43.496;3.710;2023-10-13T07:37:04;29.25;;;18.20;;
71730;SDS011;65964;43.496;3.710;2023-10-13T07:39:41;28.05;;;17.42;;
71730;SDS011;65964;43.496;3.710;2023-10-13T07:42:09;25.90;;;18.50;;
71730;SDS011;65964;43.496;3.710;2023-10-13T07:44:44;33.42;;;16.83;;
71730;SDS011;65964;43.496;3.710;2023-10-13T07:47:11;21.25;;;15.73;;
71730;SDS011;65964;43.496;3.710;2023-10-13T07:49:39;25.33;;;17.30;;
71730;SDS011;65964;43.496;3.710;2023-10-13T07:52:06;29.08;;;16.95;;
71730;SDS011;65964;43.496;3.710;2023-10-13T07:54:52;24.08;;;16.23;;
71730;SDS011;65964;43.496;3.710;2023-10-13T07:57:24;23.50;;;15.65;;
71730;SDS011;65964;43.496;3.710;2023-10-13T07:59:54;20.80;;;15.02;;
71730;SDS011;65964;43.496;3.710;2023-10-13T08:02:31;28.40;;;17.70;;
71730;SDS011;65964;43.496;3.710;2023-10-13T08:05:13;24.23;;;16.13;;
71730;SDS011;65964;43.496;3.710;2023-10-13T08:07:49;22.27;;;14.63;;
71730;SDS011;65964;43.496;3.710;2023-10-13T08:10:15;22.10;;;13.93;;
71730;SDS011;65964;43.496;3.710;2023-10-13T08:12:42;25.48;;;15.43;;
71730;SDS011;65964;43.496;3.710;2023-10-13T08:15:09;24.27;;;15.40;;
71730;SDS011;65964;43.496;3.710;2023-10-13T08:17:56;25.27;;;15.68;;
71730;SDS011;65964;43.496;3.710;2023-10-13T08:20:24;24.10;;;15.68;;
71730;SDS011;65964;43.496;3.710;2023-10-13T08:22:55;23.17;;;17.60;;
71730;SDS011;65964;43.496;3.710;2023-10-13T08:25:38;23.05;;;15.85;;
71730;SDS011;65964;43.496;3.710;2023-10-13T08:28:23;24.42;;;14.63;;
71730;SDS011;65964;43.496;3.710;2023-10-13T08:31:07;21.17;;;16.05;;
71730;SDS011;65964;43.496;3.710;2023-10-13T08:33:50;21.65;;;13.18;;
71730;SDS011;65964;43.496;3.710;2023-10-13T08:36:30;19.27;;;13.45;;
71730;SDS011;65964;43.496;3.710;2023-10-13T08:38:56;20.58;;;14.43;;
71730;SDS011;65964;43.496;3.710;2023-10-13T08:41:23;16.88;;;11.90;;
71730;SDS011;65964;43.496;3.710;2023-10-13T08:43:52;19.70;;;13.05;;
71730;SDS011;65964;43.496;3.710;2023-10-13T08:46:18;21.23;;;12.85;;
71730;SDS011;65964;43.496;3.710;2023-10-13T08:49:00;17.38;;;12.57;;
71730;SDS011;65964;43.496;3.710;2023-10-13T08:51:34;16.05;;;9.73;;
71730;SDS011;65964;43.496;3.710;2023-10-13T08:54:10;16.92;;;9.68;;
71730;SDS011;65964;43.496;3.710;2023-10-13T08:56:44;17.60;;;8.95;;
71730;SDS011;65964;43.496;3.710;2023-10-13T08:59:28;11.20;;;8.75;;
71730;SDS011;65964;43.496;3.710;2023-10-13T09:02:11;16.70;;;8.13;;
71730;SDS011;65964;43.496;3.710;2023-10-13T09:04:44;13.90;;;8.57;;
71730;SDS011;65964;43.496;3.710;2023-10-13T09:07:10;15.68;;;8.50;;
71730;SDS011;65964;43.496;3.710;2023-10-13T09:09:48;13.52;;;8.50;;
71730;SDS011;65964;43.496;3.710;2023-10-13T09:12:20;11.98;;;7.32;;
71730;SDS011;65964;43.496;3.710;2023-10-13T09:15:07;14.88;;;7.78;;
71730;SDS011;65964;43.496;3.710;2023-10-13T09:17:46;16.27;;;7.72;;
71730;SDS011;65964;43.496;3.710;2023-10-13T09:20:16;10.20;;;6.85;;
71730;SDS011;65964;43.496;3.710;2023-10-13T09:25:36;10.38;;;6.90;;
71730;SDS011;65964;43.496;3.710;2023-10-13T09:28:12;15.52;;;6.78;;
71730;SDS011;65964;43.496;3.710;2023-10-13T09:30:47;12.27;;;7.07;;
71730;SDS011;65964;43.496;3.710;2023-10-13T09:33:13;10.40;;;6.75;;
71730;SDS011;65964;43.496;3.710;2023-10-13T09:35:45;13.38;;;6.72;;
71730;SDS011;65964;43.496;3.710;2023-10-13T09:38:15;12.70;;;6.57;;
71730;SDS011;65964;43.496;3.710;2023-10-13T09:40:42;12.18;;;6.68;;
71730;SDS011;65964;43.496;3.710;2023-10-13T09:43:16;12.25;;;7.07;;
71730;SDS011;65964;43.496;3.710;2023-10-13T09:45:43;15.15;;;7.15;;
71730;SDS011;65964;43.496;3.710;2023-10-13T09:48:39;12.40;;;6.93;;
71730;SDS011;65964;43.496;3.710;2023-10-13T09:51:06;10.80;;;6.50;;
71730;SDS011;65964;43.496;3.710;2023-10-13T09:53:37;15.73;;;6.85;;
71730;SDS011;65964;43.496;3.710;2023-10-13T09:56:14;13.35;;;6.60;;
71730;SDS011;65964;43.496;3.710;2023-10-13T10:01:27;12.35;;;6.68;;
71730;SDS011;65964;43.496;3.710;2023-10-13T10:04:06;12.98;;;7.47;;
71730;SDS011;65964;43.496;3.710;2023-10-13T10:06:33;11.75;;;6.55;;
71730;SDS011;65964;43.496;3.710;2023-10-13T10:09:11;12.93;;;6.20;;
71730;SDS011;65964;43.496;3.710;2023-10-13T10:14:10;11.98;;;6.35;;
71730;SDS011;65964;43.496;3.710;2023-10-13T10:19:24;11.90;;;6.47;;
71730;SDS011;65964;43.496;3.710;2023-10-13T10:22:00;9.23;;;6.40;;
71730;SDS011;65964;43.496;3.710;2023-10-13T10:24:30;11.38;;;6.30;;
71730;SDS011;65964;43.496;3.710;2023-10-13T10:26:58;11.95;;;6.53;;
71730;SDS011;65964;43.496;3.710;2023-10-13T10:29:24;12.48;;;6.55;;
71730;SDS011;65964;43.496;3.710;2023-10-13T10:31:50;14.77;;;6.47;;
71730;SDS011;65964;43.496;3.710;2023-10-13T10:34:17;12.43;;;6.80;;
71730;SDS011;65964;43.496;3.710;2023-10-13T10:36:46;10.25;;;6.50;;
71730;SDS011;65964;43.496;3.710;2023-10-13T10:39:13;12.07;;;6.95;;
71730;SDS011;65964;43.496;3.710;2023-10-13T10:41:40;11.63;;;6.90;;
71730;SDS011;65964;43.496;3.710;2023-10-13T10:44:11;12.30;;;6.70;;
71730;SDS011;65964;43.496;3.710;2023-10-13T10:46:56;11.38;;;6.97;;
71730;SDS011;65964;43.496;3.710;2023-10-13T10:49:23;13.48;;;6.97;;
71730;SDS011;65964;43.496;3.710;2023-10-13T10:52:01;15.82;;;7.00;;
71730;SDS011;65964;43.496;3.710;2023-10-13T10:56:59;13.18;;;6.70;;
71730;SDS011;65964;43.496;3.710;2023-10-13T10:59:43;13.73;;;7.03;;
71730;SDS011;65964;43.496;3.710;2023-10-13T11:02:09;15.68;;;7.28;;
71730;SDS011;65964;43.496;3.710;2023-10-13T11:04:40;13.30;;;6.70;;
71730;SDS011;65964;43.496;3.710;2023-10-13T11:07:20;14.07;;;6.90;;
71730;SDS011;65964;43.496;3.710;2023-10-13T11:09:46;13.07;;;7.28;;
71730;SDS011;65964;43.496;3.710;2023-10-13T11:12:13;13.75;;;7.47;;
71730;SDS011;65964;43.496;3.710;2023-10-13T11:14:40;13.20;;;7.70;;
71730;SDS011;65964;43.496;3.710;2023-10-13T11:17:06;14.65;;;7.72;;
71730;SDS011;65964;43.496;3.710;2023-10-13T11:19:44;12.50;;;6.97;;
71730;SDS011;65964;43.496;3.710;2023-10-13T11:25:00;13.07;;;8.18;;
71730;SDS011;65964;43.496;3.710;2023-10-13T11:27:36;13.07;;;7.57;;
71730;SDS011;65964;43.496;3.710;2023-10-13T11:30:23;13.35;;;7.70;;
71730;SDS011;65964;43.496;3.710;2023-10-13T11:33:09;13.85;;;7.45;;
71730;SDS011;65964;43.496;3.710;2023-10-13T11:35:36;17.10;;;7.72;;
71730;SDS011;65964;43.496;3.710;2023-10-13T11:38:18;14.55;;;7.72;;
71730;SDS011;65964;43.496;3.710;2023-10-13T11:43:32;13.52;;;7.38;;
71730;SDS011;65964;43.496;3.710;2023-10-13T11:46:11;16.73;;;8.20;;
71730;SDS011;65964;43.496;3.710;2023-10-13T11:48:38;16.60;;;8.35;;
71730;SDS011;65964;43.496;3.710;2023-10-13T11:51:07;18.55;;;7.97;;
71730;SDS011;65964;43.496;3.710;2023-10-13T11:53:36;16.67;;;7.63;;
71730;SDS011;65964;43.496;3.710;2023-10-13T11:56:05;12.93;;;7.72;;
71730;SDS011;65964;43.496;3.710;2023-10-13T11:58:35;15.43;;;7.53;;
71730;SDS011;65964;43.496;3.710;2023-10-13T12:01:01;16.08;;;7.93;;
71730;SDS011;65964;43.496;3.710;2023-10-13T12:03:43;14.43;;;8.07;;
71730;SDS011;65964;43.496;3.710;2023-10-13T12:06:28;13.68;;;8.15;;
71730;SDS011;65964;43.496;3.710;2023-10-13T12:09:20;15.07;;;8.70;;
71730;SDS011;65964;43.496;3.710;2023-10-13T12:11:49;16.27;;;8.15;;
71730;SDS011;65964;43.496;3.710;2023-10-13T12:14:19;15.80;;;9.40;;
71730;SDS011;65964;43.496;3.710;2023-10-13T12:17:01;17.30;;;8.88;;
71730;SDS011;65964;43.496;3.710;2023-10-13T12:19:35;16.63;;;7.80;;
71730;SDS011;65964;43.496;3.710;2023-10-13T12:22:03;13.30;;;7.82;;
71730;SDS011;65964;43.496;3.710;2023-10-13T12:24:33;15.32;;;8.70;;
71730;SDS011;65964;43.496;3.710;2023-10-13T12:26:59;22.83;;;9.65;;
71730;SDS011;65964;43.496;3.710;2023-10-13T12:29:26;15.23;;;8.52;;
71730;SDS011;65964;43.496;3.710;2023-10-13T12:31:58;14.43;;;8.52;;
71730;SDS011;65964;43.496;3.710;2023-10-13T12:34:47;14.50;;;9.18;;
71730;SDS011;65964;43.496;3.710;2023-10-13T12:37:32;17.33;;;7.95;;
71730;SDS011;65964;43.496;3.710;2023-10-13T12:40:08;16.83;;;8.45;;
71730;SDS011;65964;43.496;3.710;2023-10-13T12:42:53;14.45;;;7.70;;
71730;SDS011;65964;43.496;3.710;2023-10-13T12:45:38;15.48;;;8.52;;
71730;SDS011;65964;43.496;3.710;2023-10-13T12:48:23;15.32;;;7.30;;
71730;SDS011;65964;43.496;3.710;2023-10-13T12:51:07;12.40;;;7.43;;
71730;SDS011;65964;43.496;3.710;2023-10-13T12:53:53;18.23;;;8.40;;
71730;SDS011;65964;43.496;3.710;2023-10-13T12:56:19;14.77;;;7.93;;
71730;SDS011;65964;43.496;3.710;2023-10-13T12:58:51;13.25;;;7.70;;
71730;SDS011;65964;43.496;3.710;2023-10-13T13:01:19;15.70;;;8.23;;
71730;SDS011;65964;43.496;3.710;2023-10-13T13:03:46;14.65;;;8.93;;
71730;SDS011;65964;43.496;3.710;2023-10-13T13:06:22;14.77;;;8.27;;
71730;SDS011;65964;43.496;3.710;2023-10-13T13:08:54;17.10;;;9.18;;
71730;SDS011;65964;43.496;3.710;2023-10-13T13:11:21;16.17;;;8.93;;
71730;SDS011;65964;43.496;3.710;2023-10-13T13:13:47;19.63;;;8.98;;
71730;SDS011;65964;43.496;3.710;2023-10-13T13:16:13;18.45;;;8.68;;
71730;SDS011;65964;43.496;3.710;2023-10-13T13:18:40;17.27;;;8.43;;
71730;SDS011;65964;43.496;3.710;2023-10-13T13:21:08;20.20;;;9.07;;
71730;SDS011;65964;43.496;3.710;2023-10-13T13:23:37;13.82;;;8.20;;
71730;SDS011;65964;43.496;3.710;2023-10-13T13:26:05;16.63;;;8.90;;
71730;SDS011;65964;43.496;3.710;2023-10-13T13:28:41;16.73;;;8.18;;
71730;SDS011;65964;43.496;3.710;2023-10-13T13:31:07;16.95;;;8.02;;
71730;SDS011;65964;43.496;3.710;2023-10-13T13:33:34;15.93;;;7.60;;
71730;SDS011;65964;43.496;3.710;2023-10-13T13:36:06;15.57;;;7.80;;
71730;SDS011;65964;43.496;3.710;2023-10-13T13:38:32;14.45;;;8.77;;
71730;SDS011;65964;43.496;3.710;2023-10-13T13:40:59;12.52;;;8.30;;
71730;SDS011;65964;43.496;3.710;2023-10-13T13:43:28;15.98;;;8.35;;
71730;SDS011;65964;43.496;3.710;2023-10-13T13:46:03;16.95;;;8.18;;
71730;SDS011;65964;43.496;3.710;2023-10-13T13:48:34;16.08;;;8.40;;
71730;SDS011;65964;43.496;3.710;2023-10-13T13:51:02;13.35;;;8.35;;
71730;SDS011;65964;43.496;3.710;2023-10-13T13:53:30;15.63;;;8.25;;
71730;SDS011;65964;43.496;3.710;2023-10-13T13:56:10;16.38;;;8.77;;
71730;SDS011;65964;43.496;3.710;2023-10-13T13:58:36;18.98;;;9.60;;
71730;SDS011;65964;43.496;3.710;2023-10-13T14:01:03;18.38;;;9.00;;
71730;SDS011;65964;43.496;3.710;2023-10-13T14:03:44;13.65;;;8.40;;
71730;SDS011;65964;43.496;3.710;2023-10-13T14:06:11;15.75;;;8.75;;
71730;SDS011;65964;43.496;3.710;2023-10-13T14:08:50;17.95;;;8.40;;
71730;SDS011;65964;43.496;3.710;2023-10-13T14:11:16;17.05;;;8.65;;
71730;SDS011;65964;43.496;3.710;2023-10-13T14:13:46;16.23;;;8.60;;
71730;SDS011;65964;43.496;3.710;2023-10-13T14:16:20;17.70;;;8.88;;
71730;SDS011;65964;43.496;3.710;2023-10-13T14:18:48;15.65;;;8.75;;
71730;SDS011;65964;43.496;3.710;2023-10-13T14:21:14;16.67;;;9.15;;
71730;SDS011;65964;43.496;3.710;2023-10-13T14:23:48;17.65;;;9.57;;
71730;SDS011;65964;43.496;3.710;2023-10-13T14:26:14;19.35;;;9.38;;
71730;SDS011;65964;43.496;3.710;2023-10-13T14:28:45;14.80;;;8.90;;
71730;SDS011;65964;43.496;3.710;2023-10-13T14:31:29;19.67;;;9.38;;
71730;SDS011;65964;43.496;3.710;2023-10-13T14:33:55;15.35;;;8.02;;
71730;SDS011;65964;43.496;3.710;2023-10-13T14:36:24;17.40;;;9.45;;
71730;SDS011;65964;43.496;3.710;2023-10-13T14:38:56;18.75;;;8.82;;
71730;SDS011;65964;43.496;3.710;2023-10-13T14:41:22;14.57;;;8.80;;
71730;SDS011;65964;43.496;3.710;2023-10-13T14:43:48;14.00;;;8.88;;
71730;SDS011;65964;43.496;3.710;2023-10-13T14:46:17;17.10;;;8.98;;
71730;SDS011;65964;43.496;3.710;2023-10-13T14:48:47;19.50;;;9.85;;
71730;SDS011;65964;43.496;3.710;2023-10-13T14:51:14;17.52;;;9.32;;
71730;SDS011;65964;43.496;3.710;2023-10-13T14:53:43;16.80;;;8.98;;
71730;SDS011;65964;43.496;3.710;2023-10-13T14:56:10;15.88;;;8.98;;
71730;SDS011;65964;43.496;3.710;2023-10-13T14:58:36;18.17;;;9.10;;
71730;SDS011;65964;43.496;3.710;2023-10-13T15:01:15;22.70;;;9.32;;
71730;SDS011;65964;43.496;3.710;2023-10-13T15:03:46;22.90;;;9.40;;
71730;SDS011;65964;43.496;3.710;2023-10-13T15:06:22;21.10;;;10.00;;
71730;SDS011;65964;43.496;3.710;2023-10-13T15:08:55;17.80;;;9.85;;
71730;SDS011;65964;43.496;3.710;2023-10-13T15:11:21;18.98;;;9.23;;
71730;SDS011;65964;43.496;3.710;2023-10-13T15:13:52;17.92;;;9.27;;
71730;SDS011;65964;43.496;3.710;2023-10-13T15:16:19;23.80;;;10.50;;
71730;SDS011;65964;43.496;3.710;2023-10-13T15:18:46;18.85;;;10.27;;
71730;SDS011;65964;43.496;3.710;2023-10-13T15:21:23;16.60;;;9.23;;
71730;SDS011;65964;43.496;3.710;2023-10-13T15:23:52;20.20;;;9.85;;
71730;SDS011;65964;43.496;3.710;2023-10-13T15:26:18;16.95;;;9.07;;